sensor_id;sensor_type;location;lat;lon;timestamp;temperature;humidity
22940;DHT22;11636;52.086;5.090;2023-05-07T00:00:14;14.50;99.90
22940;DHT22;11636;52.086;5.090;2023-05-07T00:03:09;14.60;99.90
22940;DHT22;11636;52.086;5.090;2023-05-07T00:06:05;14.60;99.90
22940;DHT22;11636;52.086;5.090;2023-05-07T00:08:53;14.60;99.90
22940;DHT22;11636;52.086;5.090;2023-05-07T00:11:46;14.60;99.90
22940;DHT22;11636;52.086;5.090;2023-05-07T00:14:33;14.60;99.90
22940;DHT22;11636;52.086;5.090;2023-05-07T00:17:27;14.60;99.90
22940;DHT22;11636;52.086;5.090;2023-05-07T00:20:15;14.60;99.90
22940;DHT22;11636;52.086;5.090;2023-05-07T00:23:09;14.60;99.90
22940;DHT22;11636;52.086;5.090;2023-05-07T00:25:57;14.60;99.90
22940;DHT22;11636;52.086;5.090;2023-05-07T00:28:50;14.60;99.90
22940;DHT22;11636;52.086;5.090;2023-05-07T00:31:38;14.60;99.90
22940;DHT22;11636;52.086;5.090;2023-05-07T00:34:31;14.60;99.90
22940;DHT22;11636;52.086;5.090;2023-05-07T00:37:18;14.60;99.90
22940;DHT22;11636;52.086;5.090;2023-05-07T00:40:12;14.60;99.90
22940;DHT22;11636;52.086;5.090;2023-05-07T00:43:06;14.60;99.90
22940;DHT22;11636;52.086;5.090;2023-05-07T00:45:54;14.60;99.90
22940;DHT22;11636;52.086;5.090;2023-05-07T00:48:48;14.60;99.90
22940;DHT22;11636;52.086;5.090;2023-05-07T00:51:35;14.60;99.90
22940;DHT22;11636;52.086;5.090;2023-05-07T00:54:29;14.50;99.90
22940;DHT22;11636;52.086;5.090;2023-05-07T00:57:17;14.50;99.90
22940;DHT22;11636;52.086;5.090;2023-05-07T01:00:11;14.50;99.90
22940;DHT22;11636;52.086;5.090;2023-05-07T01:03:00;14.40;99.90
22940;DHT22;11636;52.086;5.090;2023-05-07T01:05:55;14.40;99.90
22940;DHT22;11636;52.086;5.090;2023-05-07T01:08:45;14.40;99.90
22940;DHT22;11636;52.086;5.090;2023-05-07T01:11:39;14.40;99.90
22940;DHT22;11636;52.086;5.090;2023-05-07T01:14:27;14.40;99.90
22940;DHT22;11636;52.086;5.090;2023-05-07T01:17:20;14.40;99.90
22940;DHT22;11636;52.086;5.090;2023-05-07T01:20:14;14.40;99.90
22940;DHT22;11636;52.086;5.090;2023-05-07T01:23:03;14.40;99.90
22940;DHT22;11636;52.086;5.090;2023-05-07T01:25:57;14.40;99.90
22940;DHT22;11636;52.086;5.090;2023-05-07T01:28:44;14.40;99.90
22940;DHT22;11636;52.086;5.090;2023-05-07T01:31:38;14.40;99.90
22940;DHT22;11636;52.086;5.090;2023-05-07T01:34:28;14.40;99.90
22940;DHT22;11636;52.086;5.090;2023-05-07T01:37:24;14.30;99.90
22940;DHT22;11636;52.086;5.090;2023-05-07T01:40:12;14.30;99.90
22940;DHT22;11636;52.086;5.090;2023-05-07T01:43:12;14.30;99.90
22940;DHT22;11636;52.086;5.090;2023-05-07T01:46:08;14.30;99.90
22940;DHT22;11636;52.086;5.090;2023-05-07T01:49:02;14.30;99.90
22940;DHT22;11636;52.086;5.090;2023-05-07T01:51:57;14.30;99.90
22940;DHT22;11636;52.086;5.090;2023-05-07T01:54:45;14.30;99.90
22940;DHT22;11636;52.086;5.090;2023-05-07T01:57:39;14.20;99.90
22940;DHT22;11636;52.086;5.090;2023-05-07T02:00:26;14.20;99.90
22940;DHT22;11636;52.086;5.090;2023-05-07T02:03:19;14.20;99.90
22940;DHT22;11636;52.086;5.090;2023-05-07T02:06:14;14.20;99.90
22940;DHT22;11636;52.086;5.090;2023-05-07T02:09:01;14.20;99.90
22940;DHT22;11636;52.086;5.090;2023-05-07T02:11:55;14.20;99.90
22940;DHT22;11636;52.086;5.090;2023-05-07T02:14:49;14.20;99.90
22940;DHT22;11636;52.086;5.090;2023-05-07T02:17:39;14.20;99.90
22940;DHT22;11636;52.086;5.090;2023-05-07T02:20:51;14.20;99.90
22940;DHT22;11636;52.086;5.090;2023-05-07T02:23:45;14.20;99.90
22940;DHT22;11636;52.086;5.090;2023-05-07T02:26:32;14.20;99.90
22940;DHT22;11636;52.086;5.090;2023-05-07T02:29:26;14.20;99.90
22940;DHT22;11636;52.086;5.090;2023-05-07T02:32:20;14.30;99.90
22940;DHT22;11636;52.086;5.090;2023-05-07T02:35:07;14.20;99.90
22940;DHT22;11636;52.086;5.090;2023-05-07T02:38:01;14.20;99.90
22940;DHT22;11636;52.086;5.090;2023-05-07T02:40:55;14.20;99.90
22940;DHT22;11636;52.086;5.090;2023-05-07T02:43:49;14.20;99.90
22940;DHT22;11636;52.086;5.090;2023-05-07T02:46:56;14.20;99.90
22940;DHT22;11636;52.086;5.090;2023-05-07T02:49:56;14.20;99.90
22940;DHT22;11636;52.086;5.090;2023-05-07T02:52:50;14.10;99.90
22940;DHT22;11636;52.086;5.090;2023-05-07T02:55:44;14.20;99.90
22940;DHT22;11636;52.086;5.090;2023-05-07T02:58:39;14.20;99.90
22940;DHT22;11636;52.086;5.090;2023-05-07T03:01:35;14.20;99.90
22940;DHT22;11636;52.086;5.090;2023-05-07T03:04:29;14.10;99.90
22940;DHT22;11636;52.086;5.090;2023-05-07T03:07:16;14.10;99.90
22940;DHT22;11636;52.086;5.090;2023-05-07T03:10:09;14.10;99.90
22940;DHT22;11636;52.086;5.090;2023-05-07T03:12:57;14.00;99.90
22940;DHT22;11636;52.086;5.090;2023-05-07T03:15:51;14.00;99.90
22940;DHT22;11636;52.086;5.090;2023-05-07T03:18:38;14.00;99.90
22940;DHT22;11636;52.086;5.090;2023-05-07T03:21:32;13.90;99.90
22940;DHT22;11636;52.086;5.090;2023-05-07T03:24:20;13.80;99.90
22940;DHT22;11636;52.086;5.090;2023-05-07T03:27:14;13.80;99.90
22940;DHT22;11636;52.086;5.090;2023-05-07T03:30:01;13.70;99.90
22940;DHT22;11636;52.086;5.090;2023-05-07T03:32:55;13.70;99.90
22940;DHT22;11636;52.086;5.090;2023-05-07T03:35:49;13.70;99.90
22940;DHT22;11636;52.086;5.090;2023-05-07T03:38:43;13.70;99.90
22940;DHT22;11636;52.086;5.090;2023-05-07T03:41:37;13.70;99.90
22940;DHT22;11636;52.086;5.090;2023-05-07T03:44:24;13.70;99.90
22940;DHT22;11636;52.086;5.090;2023-05-07T03:47:18;13.80;99.90
22940;DHT22;11636;52.086;5.090;2023-05-07T03:50:05;13.80;99.90
22940;DHT22;11636;52.086;5.090;2023-05-07T03:53:06;13.80;99.90
22940;DHT22;11636;52.086;5.090;2023-05-07T03:56:06;13.80;99.90
22940;DHT22;11636;52.086;5.090;2023-05-07T03:58:54;13.90;99.90
22940;DHT22;11636;52.086;5.090;2023-05-07T04:01:48;13.80;99.90
22940;DHT22;11636;52.086;5.090;2023-05-07T04:04:38;13.90;99.90
22940;DHT22;11636;52.086;5.090;2023-05-07T04:07:32;13.90;99.90
22940;DHT22;11636;52.086;5.090;2023-05-07T04:10:19;13.90;99.90
22940;DHT22;11636;52.086;5.090;2023-05-07T04:13:13;13.90;99.90
22940;DHT22;11636;52.086;5.090;2023-05-07T04:16:02;14.00;99.90
22940;DHT22;11636;52.086;5.090;2023-05-07T04:18:56;14.00;99.90
22940;DHT22;11636;52.086;5.090;2023-05-07T04:21:43;14.00;99.90
22940;DHT22;11636;52.086;5.090;2023-05-07T04:24:37;14.10;99.90
22940;DHT22;11636;52.086;5.090;2023-05-07T04:27:31;14.10;99.90
22940;DHT22;11636;52.086;5.090;2023-05-07T04:30:19;14.10;99.90
22940;DHT22;11636;52.086;5.090;2023-05-07T04:33:14;14.10;99.90
22940;DHT22;11636;52.086;5.090;2023-05-07T04:36:04;14.10;99.90
22940;DHT22;11636;52.086;5.090;2023-05-07T04:38:58;14.10;99.90
22940;DHT22;11636;52.086;5.090;2023-05-07T04:41:45;14.20;99.90
22940;DHT22;11636;52.086;5.090;2023-05-07T04:44:39;14.20;99.90
22940;DHT22;11636;52.086;5.090;2023-05-07T04:47:26;14.20;99.90
22940;DHT22;11636;52.086;5.090;2023-05-07T04:50:20;14.20;99.90
22940;DHT22;11636;52.086;5.090;2023-05-07T04:53:17;14.30;99.90
22940;DHT22;11636;52.086;5.090;2023-05-07T04:56:11;14.30;99.90
22940;DHT22;11636;52.086;5.090;2023-05-07T04:59:05;14.30;99.90
22940;DHT22;11636;52.086;5.090;2023-05-07T05:01:52;14.40;99.90
22940;DHT22;11636;52.086;5.090;2023-05-07T05:04:46;14.40;99.90
22940;DHT22;11636;52.086;5.090;2023-05-07T05:07:33;14.50;99.90
22940;DHT22;11636;52.086;5.090;2023-05-07T05:10:27;14.50;99.90
22940;DHT22;11636;52.086;5.090;2023-05-07T05:13:14;14.50;99.90
22940;DHT22;11636;52.086;5.090;2023-05-07T05:16:08;14.60;99.90
22940;DHT22;11636;52.086;5.090;2023-05-07T05:18:55;14.60;99.90
22940;DHT22;11636;52.086;5.090;2023-05-07T05:21:49;14.70;99.90
22940;DHT22;11636;52.086;5.090;2023-05-07T05:24:36;14.70;99.90
22940;DHT22;11636;52.086;5.090;2023-05-07T05:27:30;14.70;99.90
22940;DHT22;11636;52.086;5.090;2023-05-07T05:30:24;14.80;99.90
22940;DHT22;11636;52.086;5.090;2023-05-07T05:33:11;14.80;99.90
22940;DHT22;11636;52.086;5.090;2023-05-07T05:36:05;14.80;99.90
22940;DHT22;11636;52.086;5.090;2023-05-07T05:38:52;14.70;99.90
22940;DHT22;11636;52.086;5.090;2023-05-07T05:41:46;14.60;99.90
22940;DHT22;11636;52.086;5.090;2023-05-07T05:44:33;14.60;99.90
22940;DHT22;11636;52.086;5.090;2023-05-07T05:47:27;14.50;99.90
22940;DHT22;11636;52.086;5.090;2023-05-07T05:50:14;14.50;99.90
22940;DHT22;11636;52.086;5.090;2023-05-07T05:53:08;14.40;99.90
22940;DHT22;11636;52.086;5.090;2023-05-07T05:55:55;14.40;99.90
22940;DHT22;11636;52.086;5.090;2023-05-07T05:58:49;14.50;99.90
22940;DHT22;11636;52.086;5.090;2023-05-07T06:01:36;14.50;99.90
22940;DHT22;11636;52.086;5.090;2023-05-07T06:04:30;14.50;99.90
22940;DHT22;11636;52.086;5.090;2023-05-07T06:07:24;14.50;99.90
22940;DHT22;11636;52.086;5.090;2023-05-07T06:10:11;14.60;99.90
22940;DHT22;11636;52.086;5.090;2023-05-07T06:13:05;14.60;99.90
22940;DHT22;11636;52.086;5.090;2023-05-07T06:15:52;14.70;99.90
22940;DHT22;11636;52.086;5.090;2023-05-07T06:18:46;14.70;99.90
22940;DHT22;11636;52.086;5.090;2023-05-07T06:21:33;14.80;99.90
22940;DHT22;11636;52.086;5.090;2023-05-07T06:24:27;14.80;99.90
22940;DHT22;11636;52.086;5.090;2023-05-07T06:27:14;14.90;99.90
22940;DHT22;11636;52.086;5.090;2023-05-07T06:30:08;14.90;99.90
22940;DHT22;11636;52.086;5.090;2023-05-07T06:33:02;15.00;99.90
22940;DHT22;11636;52.086;5.090;2023-05-07T06:35:49;15.00;99.90
22940;DHT22;11636;52.086;5.090;2023-05-07T06:38:43;15.00;99.90
22940;DHT22;11636;52.086;5.090;2023-05-07T06:41:30;15.10;99.90
22940;DHT22;11636;52.086;5.090;2023-05-07T06:44:24;15.20;99.90
22940;DHT22;11636;52.086;5.090;2023-05-07T06:47:11;15.30;99.90
22940;DHT22;11636;52.086;5.090;2023-05-07T06:50:05;15.30;99.90
22940;DHT22;11636;52.086;5.090;2023-05-07T06:52:53;15.30;99.90
22940;DHT22;11636;52.086;5.090;2023-05-07T06:55:46;15.30;99.90
22940;DHT22;11636;52.086;5.090;2023-05-07T06:58:40;15.30;99.90
22940;DHT22;11636;52.086;5.090;2023-05-07T07:01:28;15.30;99.90
22940;DHT22;11636;52.086;5.090;2023-05-07T07:04:23;15.30;99.90
22940;DHT22;11636;52.086;5.090;2023-05-07T07:07:11;15.40;99.90
22940;DHT22;11636;52.086;5.090;2023-05-07T07:10:05;15.50;99.90
22940;DHT22;11636;52.086;5.090;2023-05-07T07:12:53;15.70;99.90
22940;DHT22;11636;52.086;5.090;2023-05-07T07:15:47;15.80;99.90
22940;DHT22;11636;52.086;5.090;2023-05-07T07:18:34;15.90;99.90
22940;DHT22;11636;52.086;5.090;2023-05-07T07:21:29;15.90;99.90
22940;DHT22;11636;52.086;5.090;2023-05-07T07:24:24;16.00;99.90
22940;DHT22;11636;52.086;5.090;2023-05-07T07:27:11;16.00;99.90
22940;DHT22;11636;52.086;5.090;2023-05-07T07:30:06;16.10;99.90
22940;DHT22;11636;52.086;5.090;2023-05-07T07:32:54;16.20;99.90
22940;DHT22;11636;52.086;5.090;2023-05-07T07:35:48;16.30;99.90
22940;DHT22;11636;52.086;5.090;2023-05-07T07:38:35;16.40;99.90
22940;DHT22;11636;52.086;5.090;2023-05-07T07:41:29;16.40;99.90
22940;DHT22;11636;52.086;5.090;2023-05-07T07:44:16;16.50;99.90
22940;DHT22;11636;52.086;5.090;2023-05-07T07:47:10;16.50;99.90
22940;DHT22;11636;52.086;5.090;2023-05-07T07:49:58;16.50;99.90
22940;DHT22;11636;52.086;5.090;2023-05-07T07:52:51;16.50;99.90
22940;DHT22;11636;52.086;5.090;2023-05-07T07:55:41;16.50;99.90
22940;DHT22;11636;52.086;5.090;2023-05-07T07:58:35;16.60;99.90
22940;DHT22;11636;52.086;5.090;2023-05-07T08:01:30;16.60;99.90
22940;DHT22;11636;52.086;5.090;2023-05-07T08:04:17;16.60;99.90
22940;DHT22;11636;52.086;5.090;2023-05-07T08:07:11;16.60;99.90
22940;DHT22;11636;52.086;5.090;2023-05-07T08:09:58;16.60;99.90
22940;DHT22;11636;52.086;5.090;2023-05-07T08:12:52;16.60;99.90
22940;DHT22;11636;52.086;5.090;2023-05-07T08:15:39;16.70;99.90
22940;DHT22;11636;52.086;5.090;2023-05-07T08:18:33;16.80;99.90
22940;DHT22;11636;52.086;5.090;2023-05-07T08:21:20;16.80;99.90
22940;DHT22;11636;52.086;5.090;2023-05-07T08:24:15;16.80;99.90
22940;DHT22;11636;52.086;5.090;2023-05-07T08:27:08;16.90;99.90
22940;DHT22;11636;52.086;5.090;2023-05-07T08:29:55;17.00;99.90
22940;DHT22;11636;52.086;5.090;2023-05-07T08:32:49;17.20;99.90
22940;DHT22;11636;52.086;5.090;2023-05-07T08:35:36;17.30;99.90
22940;DHT22;11636;52.086;5.090;2023-05-07T08:38:31;17.50;99.90
22940;DHT22;11636;52.086;5.090;2023-05-07T08:41:18;17.60;99.90
22940;DHT22;11636;52.086;5.090;2023-05-07T08:44:13;17.90;99.90
22940;DHT22;11636;52.086;5.090;2023-05-07T08:47:06;18.00;99.90
22940;DHT22;11636;52.086;5.090;2023-05-07T08:50:01;18.20;99.90
22940;DHT22;11636;52.086;5.090;2023-05-07T08:52:48;18.20;99.90
22940;DHT22;11636;52.086;5.090;2023-05-07T08:55:43;18.30;99.90
22940;DHT22;11636;52.086;5.090;2023-05-07T08:58:39;18.20;99.90
22940;DHT22;11636;52.086;5.090;2023-05-07T09:01:26;18.00;99.90
22940;DHT22;11636;52.086;5.090;2023-05-07T09:04:20;17.90;99.90
22940;DHT22;11636;52.086;5.090;2023-05-07T09:07:07;17.80;99.90
22940;DHT22;11636;52.086;5.090;2023-05-07T09:10:03;17.80;99.90
22940;DHT22;11636;52.086;5.090;2023-05-07T09:12:58;17.80;99.90
22940;DHT22;11636;52.086;5.090;2023-05-07T09:15:51;18.00;99.90
22940;DHT22;11636;52.086;5.090;2023-05-07T09:18:42;18.30;99.90
22940;DHT22;11636;52.086;5.090;2023-05-07T09:21:36;18.50;99.90
22940;DHT22;11636;52.086;5.090;2023-05-07T09:24:23;18.70;99.90
22940;DHT22;11636;52.086;5.090;2023-05-07T09:27:19;18.90;99.90
22940;DHT22;11636;52.086;5.090;2023-05-07T09:30:07;19.00;99.90
22940;DHT22;11636;52.086;5.090;2023-05-07T09:33:03;19.10;99.90
22940;DHT22;11636;52.086;5.090;2023-05-07T09:35:56;19.20;99.90
22940;DHT22;11636;52.086;5.090;2023-05-07T09:38:45;19.30;99.90
22940;DHT22;11636;52.086;5.090;2023-05-07T09:41:45;19.30;99.90
22940;DHT22;11636;52.086;5.090;2023-05-07T09:44:34;19.30;99.90
22940;DHT22;11636;52.086;5.090;2023-05-07T09:47:31;19.20;99.90
22940;DHT22;11636;52.086;5.090;2023-05-07T09:50:32;19.30;99.90
22940;DHT22;11636;52.086;5.090;2023-05-07T09:53:30;19.40;99.90
22940;DHT22;11636;52.086;5.090;2023-05-07T09:56:25;19.60;99.90
22940;DHT22;11636;52.086;5.090;2023-05-07T09:59:15;19.80;99.90
22940;DHT22;11636;52.086;5.090;2023-05-07T10:02:10;20.10;99.90
22940;DHT22;11636;52.086;5.090;2023-05-07T10:05:04;20.50;99.90
22940;DHT22;11636;52.086;5.090;2023-05-07T10:08:00;20.70;99.90
22940;DHT22;11636;52.086;5.090;2023-05-07T10:10:54;20.90;99.90
22940;DHT22;11636;52.086;5.090;2023-05-07T10:13:43;21.00;99.90
22940;DHT22;11636;52.086;5.090;2023-05-07T10:16:37;21.20;99.90
22940;DHT22;11636;52.086;5.090;2023-05-07T10:19:25;21.30;99.90
22940;DHT22;11636;52.086;5.090;2023-05-07T10:22:20;21.50;99.90
22940;DHT22;11636;52.086;5.090;2023-05-07T10:25:21;21.70;99.90
22940;DHT22;11636;52.086;5.090;2023-05-07T10:28:17;21.90;99.90
22940;DHT22;11636;52.086;5.090;2023-05-07T10:34:28;22.00;99.90
22940;DHT22;11636;52.086;5.090;2023-05-07T10:37:24;22.00;99.90
22940;DHT22;11636;52.086;5.090;2023-05-07T10:40:12;22.00;99.90
22940;DHT22;11636;52.086;5.090;2023-05-07T10:43:06;22.00;99.90
22940;DHT22;11636;52.086;5.090;2023-05-07T10:46:15;21.90;99.90
22940;DHT22;11636;52.086;5.090;2023-05-07T10:49:09;22.00;99.90
22940;DHT22;11636;52.086;5.090;2023-05-07T10:52:16;22.00;99.90
22940;DHT22;11636;52.086;5.090;2023-05-07T10:58:23;21.90;99.90
22940;DHT22;11636;52.086;5.090;2023-05-07T11:05:21;22.00;99.90
22940;DHT22;11636;52.086;5.090;2023-05-07T11:08:15;22.10;99.90
22940;DHT22;11636;52.086;5.090;2023-05-07T11:11:03;22.40;99.90
22940;DHT22;11636;52.086;5.090;2023-05-07T11:13:57;22.60;99.90
22940;DHT22;11636;52.086;5.090;2023-05-07T11:17:02;22.80;99.90
22940;DHT22;11636;52.086;5.090;2023-05-07T11:19:56;23.20;99.90
22940;DHT22;11636;52.086;5.090;2023-05-07T11:22:43;23.40;99.90
22940;DHT22;11636;52.086;5.090;2023-05-07T11:25:38;23.50;99.90
22940;DHT22;11636;52.086;5.090;2023-05-07T11:28:39;23.50;99.90
22940;DHT22;11636;52.086;5.090;2023-05-07T11:31:33;23.60;99.90
22940;DHT22;11636;52.086;5.090;2023-05-07T11:34:22;23.80;99.90
22940;DHT22;11636;52.086;5.090;2023-05-07T11:37:17;23.90;99.90
22940;DHT22;11636;52.086;5.090;2023-05-07T11:40:12;24.00;99.90
22940;DHT22;11636;52.086;5.090;2023-05-07T11:43:10;24.10;99.90
22940;DHT22;11636;52.086;5.090;2023-05-07T11:46:07;24.30;99.90
22940;DHT22;11636;52.086;5.090;2023-05-07T11:48:55;24.70;99.90
22940;DHT22;11636;52.086;5.090;2023-05-07T11:51:49;24.90;99.90
22940;DHT22;11636;52.086;5.090;2023-05-07T11:54:37;25.10;99.90
22940;DHT22;11636;52.086;5.090;2023-05-07T11:57:32;25.20;99.90
22940;DHT22;11636;52.086;5.090;2023-05-07T12:00:21;25.40;99.90
22940;DHT22;11636;52.086;5.090;2023-05-07T12:03:14;25.00;99.90
22940;DHT22;11636;52.086;5.090;2023-05-07T12:06:09;24.80;99.90
22940;DHT22;11636;52.086;5.090;2023-05-07T12:08:56;24.60;99.90
22940;DHT22;11636;52.086;5.090;2023-05-07T12:11:51;24.50;99.90
22940;DHT22;11636;52.086;5.090;2023-05-07T12:14:44;24.50;99.90
22940;DHT22;11636;52.086;5.090;2023-05-07T12:17:37;24.70;99.90
22940;DHT22;11636;52.086;5.090;2023-05-07T12:20:32;25.10;99.90
22940;DHT22;11636;52.086;5.090;2023-05-07T12:23:20;25.10;99.90
22940;DHT22;11636;52.086;5.090;2023-05-07T12:26:14;25.00;99.90
22940;DHT22;11636;52.086;5.090;2023-05-07T12:29:02;25.00;99.90
22940;DHT22;11636;52.086;5.090;2023-05-07T12:31:56;24.90;99.90
22940;DHT22;11636;52.086;5.090;2023-05-07T12:34:53;24.90;99.90
22940;DHT22;11636;52.086;5.090;2023-05-07T12:37:40;25.20;99.90
22940;DHT22;11636;52.086;5.090;2023-05-07T12:40:39;25.70;99.90
22940;DHT22;11636;52.086;5.090;2023-05-07T12:43:34;26.00;99.90
22940;DHT22;11636;52.086;5.090;2023-05-07T12:46:27;26.00;99.90
22940;DHT22;11636;52.086;5.090;2023-05-07T12:49:15;26.00;99.90
22940;DHT22;11636;52.086;5.090;2023-05-07T12:52:11;26.10;99.90
22940;DHT22;11636;52.086;5.090;2023-05-07T12:55:05;26.20;99.90
22940;DHT22;11636;52.086;5.090;2023-05-07T12:58:01;26.40;99.90
22940;DHT22;11636;52.086;5.090;2023-05-07T13:00:50;26.30;99.90
22940;DHT22;11636;52.086;5.090;2023-05-07T13:03:48;25.90;99.90
22940;DHT22;11636;52.086;5.090;2023-05-07T13:06:43;25.40;99.90
22940;DHT22;11636;52.086;5.090;2023-05-07T13:09:37;25.20;99.90
22940;DHT22;11636;52.086;5.090;2023-05-07T13:12:25;25.00;99.90
22940;DHT22;11636;52.086;5.090;2023-05-07T13:15:19;25.00;99.90
22940;DHT22;11636;52.086;5.090;2023-05-07T13:18:13;25.00;99.90
22940;DHT22;11636;52.086;5.090;2023-05-07T13:21:01;25.00;99.90
22940;DHT22;11636;52.086;5.090;2023-05-07T13:23:54;25.00;99.90
22940;DHT22;11636;52.086;5.090;2023-05-07T13:26:42;25.10;99.90
22940;DHT22;11636;52.086;5.090;2023-05-07T13:29:35;25.20;99.90
22940;DHT22;11636;52.086;5.090;2023-05-07T13:32:30;25.40;99.90
22940;DHT22;11636;52.086;5.090;2023-05-07T13:35:17;25.50;99.90
22940;DHT22;11636;52.086;5.090;2023-05-07T13:38:10;25.60;99.90
22940;DHT22;11636;52.086;5.090;2023-05-07T13:41:04;25.70;99.90
22940;DHT22;11636;52.086;5.090;2023-05-07T13:43:58;25.80;99.90
22940;DHT22;11636;52.086;5.090;2023-05-07T13:46:46;25.90;99.90
22940;DHT22;11636;52.086;5.090;2023-05-07T13:49:40;25.90;99.90
22940;DHT22;11636;52.086;5.090;2023-05-07T13:52:27;25.80;98.30
22940;DHT22;11636;52.086;5.090;2023-05-07T13:55:22;25.70;98.80
22940;DHT22;11636;52.086;5.090;2023-05-07T13:58:15;25.50;97.70
22940;DHT22;11636;52.086;5.090;2023-05-07T14:01:09;24.90;98.70
22940;DHT22;11636;52.086;5.090;2023-05-07T14:03:57;24.50;99.90
22940;DHT22;11636;52.086;5.090;2023-05-07T14:06:53;24.30;99.90
22940;DHT22;11636;52.086;5.090;2023-05-07T14:09:41;24.20;99.90
22940;DHT22;11636;52.086;5.090;2023-05-07T14:12:35;24.20;99.90
22940;DHT22;11636;52.086;5.090;2023-05-07T14:15:22;24.00;99.90
22940;DHT22;11636;52.086;5.090;2023-05-07T14:18:16;23.90;99.90
22940;DHT22;11636;52.086;5.090;2023-05-07T14:21:06;23.80;99.90
22940;DHT22;11636;52.086;5.090;2023-05-07T14:24:03;23.70;99.90
22940;DHT22;11636;52.086;5.090;2023-05-07T14:26:57;23.40;99.90
22940;DHT22;11636;52.086;5.090;2023-05-07T14:29:51;23.20;99.90
22940;DHT22;11636;52.086;5.090;2023-05-07T14:32:44;22.90;99.90
22940;DHT22;11636;52.086;5.090;2023-05-07T14:35:45;22.30;99.90
22940;DHT22;11636;52.086;5.090;2023-05-07T14:38:35;21.60;99.90
22940;DHT22;11636;52.086;5.090;2023-05-07T14:41:29;20.90;99.90
22940;DHT22;11636;52.086;5.090;2023-05-07T14:44:16;20.40;99.90
22940;DHT22;11636;52.086;5.090;2023-05-07T14:47:10;20.10;99.90
22940;DHT22;11636;52.086;5.090;2023-05-07T14:49:57;19.80;99.90
22940;DHT22;11636;52.086;5.090;2023-05-07T14:52:52;19.60;99.90
22940;DHT22;11636;52.086;5.090;2023-05-07T14:55:47;19.20;99.90
22940;DHT22;11636;52.086;5.090;2023-05-07T14:58:34;18.50;99.90
22940;DHT22;11636;52.086;5.090;2023-05-07T15:01:28;17.90;99.90
22940;DHT22;11636;52.086;5.090;2023-05-07T15:04:22;17.20;99.90
22940;DHT22;11636;52.086;5.090;2023-05-07T15:07:10;16.80;99.90
22940;DHT22;11636;52.086;5.090;2023-05-07T15:10:04;16.50;99.90
22940;DHT22;11636;52.086;5.090;2023-05-07T15:12:51;16.40;99.90
22940;DHT22;11636;52.086;5.090;2023-05-07T15:15:45;16.40;99.90
22940;DHT22;11636;52.086;5.090;2023-05-07T15:18:39;16.20;99.90
22940;DHT22;11636;52.086;5.090;2023-05-07T15:21:33;16.20;99.90
22940;DHT22;11636;52.086;5.090;2023-05-07T15:24:31;16.40;99.90
22940;DHT22;11636;52.086;5.090;2023-05-07T15:27:25;16.40;99.90
22940;DHT22;11636;52.086;5.090;2023-05-07T15:30:13;16.50;99.90
22940;DHT22;11636;52.086;5.090;2023-05-07T15:33:08;16.40;99.90
22940;DHT22;11636;52.086;5.090;2023-05-07T15:35:55;16.40;99.90
22940;DHT22;11636;52.086;5.090;2023-05-07T15:38:52;16.40;99.90
22940;DHT22;11636;52.086;5.090;2023-05-07T15:41:40;16.30;99.90
22940;DHT22;11636;52.086;5.090;2023-05-07T15:44:34;16.50;99.90
22940;DHT22;11636;52.086;5.090;2023-05-07T15:47:22;16.70;99.90
22940;DHT22;11636;52.086;5.090;2023-05-07T15:50:16;16.90;99.90
22940;DHT22;11636;52.086;5.090;2023-05-07T15:53:10;17.20;99.90
22940;DHT22;11636;52.086;5.090;2023-05-07T15:55:59;17.40;99.90
22940;DHT22;11636;52.086;5.090;2023-05-07T15:58:53;17.70;99.90
22940;DHT22;11636;52.086;5.090;2023-05-07T16:01:47;18.00;99.90
22940;DHT22;11636;52.086;5.090;2023-05-07T16:04:41;18.30;99.90
22940;DHT22;11636;52.086;5.090;2023-05-07T16:07:28;18.50;99.90
22940;DHT22;11636;52.086;5.090;2023-05-07T16:10:22;18.50;99.90
22940;DHT22;11636;52.086;5.090;2023-05-07T16:13:10;18.60;99.90
22940;DHT22;11636;52.086;5.090;2023-05-07T16:16:04;18.60;99.90
22940;DHT22;11636;52.086;5.090;2023-05-07T16:18:52;18.70;99.90
22940;DHT22;11636;52.086;5.090;2023-05-07T16:21:46;18.80;99.90
22940;DHT22;11636;52.086;5.090;2023-05-07T16:24:33;18.80;99.90
22940;DHT22;11636;52.086;5.090;2023-05-07T16:27:27;18.90;99.90
22940;DHT22;11636;52.086;5.090;2023-05-07T16:30:14;18.90;99.90
22940;DHT22;11636;52.086;5.090;2023-05-07T16:33:08;18.90;99.90
22940;DHT22;11636;52.086;5.090;2023-05-07T16:35:55;19.00;99.90
22940;DHT22;11636;52.086;5.090;2023-05-07T16:38:49;19.20;99.90
22940;DHT22;11636;52.086;5.090;2023-05-07T16:41:44;19.10;99.90
22940;DHT22;11636;52.086;5.090;2023-05-07T16:44:41;19.10;99.90
22940;DHT22;11636;52.086;5.090;2023-05-07T16:47:28;19.10;99.90
22940;DHT22;11636;52.086;5.090;2023-05-07T16:50:22;19.00;99.90
22940;DHT22;11636;52.086;5.090;2023-05-07T16:53:10;19.00;99.90
22940;DHT22;11636;52.086;5.090;2023-05-07T16:56:07;18.90;99.90
22940;DHT22;11636;52.086;5.090;2023-05-07T16:59:01;18.80;99.90
22940;DHT22;11636;52.086;5.090;2023-05-07T17:01:48;18.70;99.90
22940;DHT22;11636;52.086;5.090;2023-05-07T17:04:45;18.60;99.90
22940;DHT22;11636;52.086;5.090;2023-05-07T17:07:32;18.60;99.90
22940;DHT22;11636;52.086;5.090;2023-05-07T17:10:26;18.70;99.90
22940;DHT22;11636;52.086;5.090;2023-05-07T17:13:13;18.90;99.90
22940;DHT22;11636;52.086;5.090;2023-05-07T17:16:07;19.00;99.90
22940;DHT22;11636;52.086;5.090;2023-05-07T17:19:01;19.00;99.90
22940;DHT22;11636;52.086;5.090;2023-05-07T17:21:55;19.00;99.90
22940;DHT22;11636;52.086;5.090;2023-05-07T17:24:42;19.00;99.90
22940;DHT22;11636;52.086;5.090;2023-05-07T17:27:36;19.00;99.90
22940;DHT22;11636;52.086;5.090;2023-05-07T17:30:23;19.00;99.90
22940;DHT22;11636;52.086;5.090;2023-05-07T17:33:17;18.90;99.90
22940;DHT22;11636;52.086;5.090;2023-05-07T17:36:08;18.90;99.90
22940;DHT22;11636;52.086;5.090;2023-05-07T17:39:02;18.80;99.90
22940;DHT22;11636;52.086;5.090;2023-05-07T17:41:50;18.80;99.90
22940;DHT22;11636;52.086;5.090;2023-05-07T17:44:44;18.70;99.90
22940;DHT22;11636;52.086;5.090;2023-05-07T17:47:31;18.60;99.90
22940;DHT22;11636;52.086;5.090;2023-05-07T17:50:25;18.60;99.90
22940;DHT22;11636;52.086;5.090;2023-05-07T17:53:12;18.50;99.90
22940;DHT22;11636;52.086;5.090;2023-05-07T17:56:06;18.40;99.90
22940;DHT22;11636;52.086;5.090;2023-05-07T17:59:00;18.40;99.90
22940;DHT22;11636;52.086;5.090;2023-05-07T18:01:47;18.30;99.90
22940;DHT22;11636;52.086;5.090;2023-05-07T18:04:41;18.30;99.90
22940;DHT22;11636;52.086;5.090;2023-05-07T18:07:35;18.20;99.90
22940;DHT22;11636;52.086;5.090;2023-05-07T18:10:29;18.20;99.90
22940;DHT22;11636;52.086;5.090;2023-05-07T18:13:23;18.10;99.90
22940;DHT22;11636;52.086;5.090;2023-05-07T18:16:10;18.00;99.90